Time;durP1;ratioP1;P1;durP2;ratioP2;P2;SDS_P1;SDS_P2;PMS_P1;PMS_P2;Temp;Humidity;BMP_temperature;BMP_pressure;BME280_temperature;BME280_humidity;BME280_pressure;Samples;Min_cycle;Max_cycle;Signal;HPM_P1;HPM_P2
2024/03/13 00:04:10;;;;;;;;;;;;;;;8.74;100.00;94160.34;10306682;28;19916;-80
2024/03/13 00:09:10;;;;;;;;;;;;;;;8.75;100.00;94155.78;10307830;28;19914;-80
2024/03/13 00:14:10;;;;;;;;;;;;;;;8.80;100.00;94155.75;10322218;28;19909;-80
2024/03/13 00:19:11;;;;;;;;;;;;;;;8.82;100.00;94149.03;10304805;28;20008;-80
2024/03/13 00:24:12;;;;;;;;;;;;;;;8.80;100.00;94155.75;10321085;28;19913;-80
2024/03/13 00:29:12;;;;;;;;;;;;;;;8.87;100.00;94148.22;10317597;28;19970;-80
2024/03/13 00:34:12;;;;;;;;;;;;;;;8.92;100.00;94140.16;10353769;28;19919;-80
2024/03/13 00:39:13;;;;;;;;;;;;;;;8.83;100.00;94149.84;10354491;28;20323;-81
2024/03/13 00:44:14;;;;;;;;;;;;;;;8.77;100.00;94150.94;10353605;28;20347;-81
2024/03/13 00:49:14;;;;;;;;;;;;;;;8.64;100.00;94133.59;10354527;28;20409;-80
2024/03/13 00:54:15;;;;;;;;;;;;;;;8.46;100.00;94140.38;10352848;28;20355;-80
2024/03/13 00:59:16;;;;;;;;;;;;;;;8.44;100.00;94137.94;10353263;28;19910;-79
2024/03/13 01:04:16;;;;;;;;;;;;;;;8.27;100.00;94132.91;10352338;28;19996;-80
2024/03/13 01:09:19;;;;;;;;;;;;;;;8.02;100.00;94123.06;10352541;28;19920;-81
2024/03/13 01:14:20;;;;;;;;;;;;;;;7.99;100.00;94124.41;10353036;28;20576;-79
2024/03/13 01:19:21;;;;;;;;;;;;;;;8.10;100.00;94121.72;10351609;28;19913;-80
2024/03/13 01:24:21;;;;;;;;;;;;;;;8.10;100.00;94121.72;10350611;28;19914;-79
2024/03/13 01:29:23;;;;;;;;;;;;;;;8.20;100.00;94129.72;10341609;28;20572;-79
2024/03/13 01:34:24;;;;;;;;;;;;;;;8.29;100.00;94121.91;10339835;28;19944;-79
2024/03/13 01:39:24;;;;;;;;;;;;;;;8.27;100.00;94119.50;10353483;28;19922;-79
2024/03/13 01:55:49;;;;;;;;;;;;;;;8.50;100.00;94128.03;10353552;28;19913;-81
2024/03/13 02:05:51;;;;;;;;;;;;;;;8.62;100.00;94115.09;10352514;28;20429;-79
2024/03/13 02:10:51;;;;;;;;;;;;;;;8.72;100.00;94117.75;10351929;28;19918;-79
2024/03/13 02:15:53;;;;;;;;;;;;;;;8.78;100.00;94109.69;10349109;28;19921;-79
2024/03/13 02:20:53;;;;;;;;;;;;;;;8.65;100.00;94119.94;10347450;28;20561;-78
2024/03/13 02:25:54;;;;;;;;;;;;;;;8.64;100.00;94123.69;10350686;28;19990;-80
2024/03/13 02:30:55;;;;;;;;;;;;;;;8.77;100.00;94111.56;10349546;28;19917;-80
2024/03/13 02:35:55;;;;;;;;;;;;;;;8.35;100.00;94120.84;10350738;28;20004;-78
2024/03/13 02:40:55;;;;;;;;;;;;;;;8.54;100.00;94115.72;10310924;28;19921;-78
2024/03/13 02:45:56;;;;;;;;;;;;;;;8.58;100.00;94114.06;10309610;28;19944;-80
2024/03/13 02:50:56;;;;;;;;;;;;;;;8.35;100.00;94118.94;10307937;28;20313;-81
2024/03/13 02:55:56;;;;;;;;;;;;;;;8.39;100.00;94119.22;10317728;28;19952;-78
2024/03/13 03:00:58;;;;;;;;;;;;;;;8.60;100.00;94116.47;10309599;28;19909;-80
2024/03/13 03:06:02;;;;;;;;;;;;;;;8.64;100.00;94112.19;10309005;28;20005;-80
2024/03/13 03:11:03;;;;;;;;;;;;;;;8.73;100.00;94115.84;10310046;28;19922;-79
2024/03/13 03:16:03;;;;;;;;;;;;;;;8.69;100.00;94110.28;10310749;28;19925;-79
2024/03/13 03:21:05;;;;;;;;;;;;;;;8.67;100.00;94120.44;10307286;28;20367;-79
2024/03/13 03:26:05;;;;;;;;;;;;;;;8.42;100.00;94118.66;10308318;28;19909;-79
2024/03/13 03:31:09;;;;;;;;;;;;;;;8.15;100.00;94122.50;10310441;28;19922;-79
2024/03/13 03:36:10;;;;;;;;;;;;;;;8.06;100.00;94131.38;10308434;28;20336;-78
2024/03/13 03:41:10;;;;;;;;;;;;;;;7.86;100.00;94133.81;10308967;28;19926;-79
2024/03/13 03:46:12;;;;;;;;;;;;;;;7.77;100.00;94129.28;10309050;28;19910;-80
2024/03/13 03:51:16;;;;;;;;;;;;;;;7.36;100.00;94133.59;10308850;28;19918;-80
2024/03/13 03:56:17;;;;;;;;;;;;;;;7.22;100.00;94139.75;10323079;28;20339;-79
2024/03/13 04:01:17;;;;;;;;;;;;;;;7.15;100.00;94153.38;10312780;28;19909;-79
2024/03/13 04:06:18;;;;;;;;;;;;;;;7.04;100.00;94143.75;10353343;28;19988;-78
2024/03/13 04:11:19;;;;;;;;;;;;;;;7.11;100.00;94142.41;10356708;28;19913;-79
2024/03/13 04:16:20;;;;;;;;;;;;;;;7.14;100.00;94155.22;10357739;28;19916;-79
2024/03/13 04:21:21;;;;;;;;;;;;;;;7.15;100.00;94153.38;10356840;28;19920;-79
2024/03/13 04:26:21;;;;;;;;;;;;;;;7.06;100.00;94149.63;10356444;28;19948;-79
2024/03/13 04:31:22;;;;;;;;;;;;;;;6.97;100.00;94146.66;10355582;28;19914;-77
2024/03/13 04:36:22;;;;;;;;;;;;;;;6.99;100.00;94161.38;10356547;28;19913;-79
2024/03/13 04:41:24;;;;;;;;;;;;;;;7.08;100.00;94156.31;10356149;28;20320;-78
2024/03/13 04:46:24;;;;;;;;;;;;;;;7.12;100.00;94165.41;10349624;28;20057;-80
2024/03/13 04:51:26;;;;;;;;;;;;;;;6.86;100.00;94171.75;10315562;28;19913;-79
2024/03/13 04:56:27;;;;;;;;;;;;;;;6.54;100.00;94176.19;10314606;28;20403;-79
2024/03/13 05:01:30;;;;;;;;;;;;;;;6.30;100.00;94184.63;10313645;28;19997;-77
2024/03/13 05:06:30;;;;;;;;;;;;;;;6.41;100.00;94188.16;10313083;28;20024;-79
2024/03/13 05:11:31;;;;;;;;;;;;;;;6.27;100.00;94197.69;10312442;28;19917;-80
2024/03/13 05:16:31;;;;;;;;;;;;;;;6.28;100.00;94200.09;10313822;28;19909;-77
2024/03/13 05:21:32;;;;;;;;;;;;;;;6.54;100.00;94202.88;10315598;28;20368;-78
2024/03/13 05:26:33;;;;;;;;;;;;;;;6.69;100.00;94204.81;10311304;28;19914;-79
2024/03/13 05:31:34;;;;;;;;;;;;;;;6.66;100.00;94211.47;10310097;28;20365;-80
2024/03/13 05:36:36;;;;;;;;;;;;;;;6.59;100.00;94212.81;10308835;28;19932;-80
2024/03/13 05:41:36;;;;;;;;;;;;;;;6.59;100.00;94210.13;10308125;28;19918;-79
2024/03/13 05:46:36;;;;;;;;;;;;;;;6.44;100.00;94208.97;10306795;28;19910;-79
2024/03/13 05:51:37;;;;;;;;;;;;;;;6.59;100.00;94210.13;10307492;28;19929;-78
2024/03/13 05:56:37;;;;;;;;;;;;;;;6.58;100.00;94206.63;10308870;28;19909;-79
2024/03/13 06:01:37;;;;;;;;;;;;;;;6.55;100.00;94209.84;10310263;28;20395;-78
2024/03/13 06:06:38;;;;;;;;;;;;;;;6.40;100.00;94225.78;10310287;28;19910;-80
2024/03/13 06:11:38;;;;;;;;;;;;;;;6.55;100.00;94228.53;10308993;28;19913;-77
2024/03/13 06:16:38;;;;;;;;;;;;;;;6.55;100.00;94235.75;10307586;28;19914;-78
2024/03/13 06:21:39;;;;;;;;;;;;;;;6.65;100.00;94235.78;10306024;28;20371;-78
2024/03/13 06:26:43;;;;;;;;;;;;;;;6.83;100.00;94243.31;10305135;28;19929;-78
2024/03/13 06:31:43;;;;;;;;;;;;;;;6.93;100.00;94245.22;10308586;28;20012;-81
2024/03/13 06:36:44;;;;;;;;;;;;;;;7.02;100.00;94250.88;10309770;28;19916;-78
2024/03/13 06:41:44;;;;;;;;;;;;;;;7.63;100.00;94247.53;10308876;28;19921;-80
2024/03/13 06:46:45;;;;;;;;;;;;;;;8.26;100.00;94243.75;10309823;28;20037;-79
2024/03/13 06:51:45;;;;;;;;;;;;;;;8.94;100.00;94241.72;10307894;28;19914;-79
2024/03/13 06:56:47;;;;;;;;;;;;;;;9.39;100.00;94238.00;10309323;28;19910;-78
2024/03/13 07:01:47;;;;;;;;;;;;;;;9.45;100.00;94248.69;10307816;28;19910;-80
2024/03/13 07:06:48;;;;;;;;;;;;;;;9.82;100.00;94252.72;10308483;28;19964;-79
2024/03/13 07:11:48;;;;;;;;;;;;;;;9.38;100.00;94249.78;10309200;28;19918;-79
2024/03/13 07:16:49;;;;;;;;;;;;;;;9.04;100.00;94253.19;10308302;28;19913;-77
2024/03/13 07:21:49;;;;;;;;;;;;;;;9.48;100.00;94264.22;10309342;28;19993;-79
2024/03/13 07:26:50;;;;;;;;;;;;;;;9.21;100.00;94260.88;10309516;28;19909;-78
2024/03/13 07:31:51;;;;;;;;;;;;;;;9.57;100.00;94265.22;10306660;28;19925;-79
2024/03/13 07:36:52;;;;;;;;;;;;;;;10.81;100.00;94259.63;10308680;28;19909;-78
2024/03/13 07:41:52;;;;;;;;;;;;;;;11.74;100.00;94256.53;10313321;28;19918;-80
2024/03/13 07:46:52;;;;;;;;;;;;;;;12.43;100.00;94260.59;10315321;28;19918;-77
2024/03/13 07:51:57;;;;;;;;;;;;;;;13.45;100.00;94247.06;10300033;28;20300;-78
2024/03/13 07:56:58;;;;;;;;;;;;;;;13.66;100.00;94249.28;10325839;28;19913;-79
2024/03/13 08:01:58;;;;;;;;;;;;;;;13.78;88.97;94246.06;10316056;28;19916;-78
2024/03/13 08:06:59;;;;;;;;;;;;;;;13.79;95.48;94245.75;10320559;28;19909;-79
2024/03/13 08:11:59;;;;;;;;;;;;;;;13.78;89.43;94240.66;10316316;28;20443;-78
2024/03/13 08:17:00;;;;;;;;;;;;;;;13.76;92.23;94237.47;10315085;28;19979;-78
2024/03/13 08:22:00;;;;;;;;;;;;;;;12.91;94.39;94243.28;10314687;28;19914;-77
2024/03/13 08:27:00;;;;;;;;;;;;;;;11.74;100.00;94245.78;10314733;28;19933;-78
2024/03/13 08:32:01;;;;;;;;;;;;;;;11.86;100.00;94248.03;10315364;28;19917;-80
2024/03/13 08:37:03;;;;;;;;;;;;;;;11.21;100.00;94254.06;10314515;28;19928;-79
2024/03/13 08:42:03;;;;;;;;;;;;;;;11.02;100.00;94260.19;10314229;28;20320;-79
2024/03/13 08:47:03;;;;;;;;;;;;;;;11.27;100.00;94263.66;10312854;28;19910;-78
2024/03/13 08:52:05;;;;;;;;;;;;;;;11.99;100.00;94253.78;10313714;28;20004;-78
2024/03/13 08:57:08;;;;;;;;;;;;;;;12.13;100.00;94260.03;10312284;28;19968;-79
2024/03/13 09:02:09;;;;;;;;;;;;;;;11.59;99.61;94278.28;10295836;28;20292;-79
2024/03/13 09:07:10;;;;;;;;;;;;;;;11.63;100.00;94273.94;10313323;28;19914;-78
2024/03/13 09:12:13;;;;;;;;;;;;;;;11.66;100.00;94276.03;10311927;28;20325;-79
2024/03/13 09:17:13;;;;;;;;;;;;;;;12.44;97.44;94279.16;10311194;28;19913;-80
2024/03/13 09:22:17;;;;;;;;;;;;;;;11.96;99.18;94279.41;10310668;28;19913;-81
2024/03/13 09:27:17;;;;;;;;;;;;;;;12.49;94.56;94289.06;10320190;28;20036;-79
2024/03/13 09:32:24;;;;;;;;;;;;;;;13.46;90.26;94277.53;10309325;28;20231;-80
2024/03/13 09:37:26;;;;;;;;;;;;;;;12.89;80.26;94299.41;10310096;28;20379;-80
2024/03/13 09:42:29;;;;;;;;;;;;;;;12.94;94.22;94299.31;10308096;28;19968;-82
2024/03/13 09:47:30;;;;;;;;;;;;;;;11.09;99.46;94301.00;10310781;28;19925;-79
2024/03/13 09:52:32;;;;;;;;;;;;;;;11.88;98.11;94298.91;10309249;28;19936;-79
2024/03/13 09:57:34;;;;;;;;;;;;;;;12.83;92.69;94288.72;10312517;28;20329;-78
2024/03/13 10:02:38;;;;;;;;;;;;;;;13.34;81.08;94280.75;10310186;28;20320;-80
2024/03/13 10:07:40;;;;;;;;;;;;;;;13.09;88.77;94271.22;10308184;28;20660;-80
2024/03/13 10:12:41;;;;;;;;;;;;;;;14.39;92.82;94268.13;10310447;28;19910;-80
2024/03/13 10:17:44;;;;;;;;;;;;;;;15.08;82.44;94269.59;10311583;28;20488;-82
2024/03/13 10:22:48;;;;;;;;;;;;;;;17.89;64.94;94257.19;10293757;28;20334;-80
2024/03/13 10:27:49;;;;;;;;;;;;;;;18.05;56.20;94259.34;10310474;28;19913;-81
2024/03/13 10:32:59;;;;;;;;;;;;;;;15.88;78.18;94274.91;10309739;28;19910;-81
2024/03/13 10:38:01;;;;;;;;;;;;;;;16.67;93.71;94263.97;10309480;28;20460;-82
2024/03/13 10:43:01;;;;;;;;;;;;;;;19.35;54.63;94244.72;10309410;28;20376;-80
2024/03/13 10:48:03;;;;;;;;;;;;;;;20.83;48.06;94230.66;10308363;28;19917;-82
2024/03/13 10:53:05;;;;;;;;;;;;;;;20.42;48.17;94233.47;10308998;28;19920;-80
2024/03/13 10:58:18;;;;;;;;;;;;;;;18.24;53.50;94251.50;10309476;28;20004;-80
2024/03/13 11:03:18;;;;;;;;;;;;;;;16.01;75.08;94256.09;10308805;28;19913;-79
2024/03/13 11:08:18;;;;;;;;;;;;;;;14.25;95.84;94262.00;10291743;28;20308;-79
2024/03/13 11:13:19;;;;;;;;;;;;;;;13.46;100.00;94256.72;10308563;28;19967;-78
2024/03/13 11:18:21;;;;;;;;;;;;;;;12.85;100.00;94263.34;10308910;28;20281;-81
2024/03/13 11:23:29;;;;;;;;;;;;;;;15.06;100.00;94247.47;10309015;28;20296;-79
2024/03/13 11:28:30;;;;;;;;;;;;;;;15.62;95.97;94249.69;10307412;28;19936;-79
2024/03/13 11:33:31;;;;;;;;;;;;;;;17.25;79.18;94236.50;10306830;28;20339;-79
2024/03/13 11:38:34;;;;;;;;;;;;;;;17.07;79.19;94235.78;10308098;28;19932;-81
2024/03/13 11:43:36;;;;;;;;;;;;;;;15.87;80.98;94231.88;10306913;28;20012;-79
2024/03/13 11:48:37;;;;;;;;;;;;;;;14.96;96.39;94226.09;10309811;28;20384;-78
2024/03/13 11:53:40;;;;;;;;;;;;;;;14.41;98.33;94225.34;10310396;28;19967;-80
2024/03/13 11:58:41;;;;;;;;;;;;;;;14.22;100.00;94225.56;10308074;28;20327;-80
2024/03/13 12:03:50;;;;;;;;;;;;;;;13.85;100.00;94222.13;10308876;28;19960;-81
2024/03/13 12:08:52;;;;;;;;;;;;;;;14.08;92.12;94217.53;10309151;28;20257;-80
2024/03/13 12:13:54;;;;;;;;;;;;;;;13.73;88.12;94222.69;10308277;28;19929;-78
2024/03/13 12:18:54;;;;;;;;;;;;;;;13.29;92.18;94222.25;10306633;28;19913;-79
2024/03/13 12:23:55;;;;;;;;;;;;;;;12.94;100.00;94221.91;10305933;28;20284;-79
2024/03/13 12:28:55;;;;;;;;;;;;;;;12.87;98.15;94221.50;10313995;28;20599;-79
2024/03/13 12:33:58;;;;;;;;;;;;;;;12.96;100.00;94225.09;10315264;28;19909;-80
2024/03/13 12:38:58;;;;;;;;;;;;;;;13.03;100.00;94219.28;10313094;28;20704;-80
2024/03/13 12:43:58;;;;;;;;;;;;;;;13.29;100.00;94211.47;10314495;28;19914;-78
2024/03/13 12:48:59;;;;;;;;;;;;;;;13.32;100.00;94218.16;10313970;28;19914;-79
2024/03/13 12:54:06;;;;;;;;;;;;;;;12.92;100.00;94218.72;10316360;28;19968;-78
2024/03/13 12:59:09;;;;;;;;;;;;;;;13.08;100.00;94215.69;10312877;28;19910;-78
2024/03/13 13:04:14;;;;;;;;;;;;;;;12.63;100.00;94232.50;10296243;28;19910;-79
2024/03/13 13:09:14;;;;;;;;;;;;;;;11.76;100.00;94227.44;10313795;28;19922;-80
2024/03/13 13:14:14;;;;;;;;;;;;;;;11.96;100.00;94214.78;10313984;28;19913;-79
2024/03/13 13:19:15;;;;;;;;;;;;;;;12.17;100.00;94217.13;10312055;28;20268;-78
2024/03/13 13:24:16;;;;;;;;;;;;;;;12.52;100.00;94209.50;10312931;28;19910;-80
2024/03/13 13:29:17;;;;;;;;;;;;;;;12.62;100.00;94217.41;10311554;28;20345;-78
2024/03/13 13:34:17;;;;;;;;;;;;;;;12.05;100.00;94228.38;10314419;28;19945;-79
2024/03/13 13:39:19;;;;;;;;;;;;;;;11.57;100.00;94230.16;10311768;28;19926;-77
2024/03/13 13:44:19;;;;;;;;;;;;;;;10.92;100.00;94228.03;10312868;28;19916;-79
2024/03/13 13:49:19;;;;;;;;;;;;;;;10.61;100.00;94225.72;10313042;28;19920;-80
2024/03/13 13:54:20;;;;;;;;;;;;;;;10.43;100.00;94222.66;10327447;28;19917;-78
2024/03/13 13:59:22;;;;;;;;;;;;;;;10.25;100.00;94213.41;10349293;28;20323;-79
2024/03/13 14:04:22;;;;;;;;;;;;;;;10.29;100.00;94197.53;10352151;28;19916;-79
2024/03/13 14:09:23;;;;;;;;;;;;;;;10.47;100.00;94211.38;10349870;28;19921;-78
2024/03/13 14:14:23;;;;;;;;;;;;;;;10.71;100.00;94214.84;10354977;28;19949;-78
2024/03/13 14:19:23;;;;;;;;;;;;;;;10.64;100.00;94217.06;10351593;28;19921;-79
2024/03/13 14:24:23;;;;;;;;;;;;;;;10.46;100.00;94228.56;10315104;28;19921;-77
2024/03/13 14:29:25;;;;;;;;;;;;;;;10.31;100.00;94227.63;10303897;28;20343;-78
2024/03/13 14:34:25;;;;;;;;;;;;;;;10.22;100.00;94230.09;10302751;28;19945;-76
2024/03/13 14:39:27;;;;;;;;;;;;;;;10.21;100.00;94228.50;10303577;28;20041;-78
2024/03/13 14:44:28;;;;;;;;;;;;;;;10.40;100.00;94223.25;10302912;28;19917;-76
2024/03/13 14:49:28;;;;;;;;;;;;;;;10.35;100.00;94231.34;10301635;28;20284;-77
2024/03/13 14:54:28;;;;;;;;;;;;;;;10.29;100.00;94227.09;10285800;28;19918;-76
2024/03/13 14:59:28;;;;;;;;;;;;;;;10.43;100.00;94233.41;10302636;28;19988;-77
2024/03/13 15:04:29;;;;;;;;;;;;;;;10.48;100.00;94229.06;10302882;28;19936;-76
2024/03/13 15:09:29;;;;;;;;;;;;;;;10.31;100.00;94232.97;10302100;28;19980;-77
2024/03/13 15:14:30;;;;;;;;;;;;;;;10.27;100.00;94248.06;10300263;28;19914;-76
2024/03/13 15:19:30;;;;;;;;;;;;;;;10.25;100.00;94245.63;10302307;28;19920;-74
2024/03/13 15:24:31;;;;;;;;;;;;;;;10.12;100.00;94251.69;10300945;28;19968;-78
2024/03/13 15:29:32;;;;;;;;;;;;;;;10.03;100.00;94256.03;10302068;28;20558;-76
2024/03/13 15:34:32;;;;;;;;;;;;;;;10.00;100.00;94259.28;10284491;28;19949;-77
2024/03/13 15:39:33;;;;;;;;;;;;;;;10.07;100.00;94270.50;10302382;28;20012;-77
2024/03/13 15:44:33;;;;;;;;;;;;;;;10.03;100.00;94266.78;10301817;28;20027;-77
2024/03/13 15:49:33;;;;;;;;;;;;;;;9.77;100.00;94269.66;10303599;28;19964;-78
2024/03/13 15:54:36;;;;;;;;;;;;;;;9.57;100.00;94286.69;10303058;28;20315;-76
2024/03/13 15:59:36;;;;;;;;;;;;;;;9.35;100.00;94287.91;10306866;28;19914;-77
2024/03/13 16:04:36;;;;;;;;;;;;;;;9.18;100.00;94298.97;10310584;28;20379;-77
2024/03/13 16:09:36;;;;;;;;;;;;;;;8.85;100.00;94314.63;10309794;28;19918;-77
2024/03/13 16:14:37;;;;;;;;;;;;;;;8.81;100.00;94315.44;10310951;28;20443;-78
2024/03/13 16:19:37;;;;;;;;;;;;;;;8.67;100.00;94321.34;10310291;28;19960;-77
2024/03/13 16:24:37;;;;;;;;;;;;;;;8.60;100.00;94331.56;10310726;28;20408;-78
2024/03/13 16:29:40;;;;;;;;;;;;;;;8.55;100.00;94331.56;10311446;28;19920;-78
2024/03/13 16:34:45;;;;;;;;;;;;;;;8.57;100.00;94342.81;10309437;28;19948;-76
2024/03/13 16:39:46;;;;;;;;;;;;;;;8.57;100.00;94337.47;10310621;28;19925;-77
2024/03/13 16:44:47;;;;;;;;;;;;;;;8.57;100.00;94339.31;10310411;28;19910;-78
2024/03/13 16:49:47;;;;;;;;;;;;;;;8.31;100.00;94348.16;10310103;28;19914;-77
2024/03/13 16:54:48;;;;;;;;;;;;;;;8.27;100.00;94348.97;10309656;28;20517;-78
2024/03/13 16:59:48;;;;;;;;;;;;;;;8.13;100.00;94349.47;10309727;28;20073;-77
2024/03/13 17:04:48;;;;;;;;;;;;;;;7.73;100.00;94355.59;10309027;28;20008;-77
2024/03/13 17:09:50;;;;;;;;;;;;;;;7.63;100.00;94359.03;10291367;28;20309;-77
2024/03/13 17:14:50;;;;;;;;;;;;;;;7.42;100.00;94355.50;10305790;28;19916;-77
2024/03/13 17:19:55;;;;;;;;;;;;;;;7.26;100.00;94354.66;10308770;28;19921;-77
2024/03/13 17:24:56;;;;;;;;;;;;;;;7.59;100.00;94355.28;10308033;28;19909;-78
2024/03/13 17:29:56;;;;;;;;;;;;;;;7.76;100.00;94360.41;10308482;28;20404;-77
2024/03/13 17:34:56;;;;;;;;;;;;;;;7.93;100.00;94362.84;10306783;28;20262;-78
2024/03/13 17:39:57;;;;;;;;;;;;;;;8.09;100.00;94358.31;10307060;28;20017;-78
2024/03/13 17:44:57;;;;;;;;;;;;;;;8.16;100.00;94356.19;10305570;28;19910;-78
2024/03/13 17:49:58;;;;;;;;;;;;;;;7.79;100.00;94365.25;10305295;28;20288;-76
2024/03/13 17:54:58;;;;;;;;;;;;;;;7.80;100.00;94362.31;10306504;28;19916;-78
2024/03/13 18:00:00;;;;;;;;;;;;;;;7.91;100.00;94371.16;10306966;28;19913;-77
2024/03/13 18:05:00;;;;;;;;;;;;;;;7.98;100.00;94370.88;10305992;28;19909;-77
2024/03/13 18:10:00;;;;;;;;;;;;;;;7.98;100.00;94374.38;10307313;28;19921;-78
2024/03/13 18:15:02;;;;;;;;;;;;;;;7.75;100.00;94370.31;10308643;28;20328;-79
2024/03/13 18:20:05;;;;;;;;;;;;;;;7.68;100.00;94365.19;10308397;28;20365;-79
2024/03/13 18:25:08;;;;;;;;;;;;;;;7.85;100.00;94364.97;10292438;28;19975;-80
2024/03/13 18:30:12;;;;;;;;;;;;;;;7.63;100.00;94361.72;10307798;28;19918;-79
2024/03/13 18:35:13;;;;;;;;;;;;;;;7.92;100.00;94371.94;10291640;28;20000;-80
2024/03/13 18:40:17;;;;;;;;;;;;;;;8.14;100.00;94369.84;10308487;28;20273;-79
2024/03/13 18:45:17;;;;;;;;;;;;;;;8.33;100.00;94378.16;10308284;28;19971;-80
2024/03/13 18:50:17;;;;;;;;;;;;;;;8.28;100.00;94378.13;10309963;28;20411;-80
2024/03/13 18:55:21;;;;;;;;;;;;;;;8.50;100.00;94390.50;10309699;28;19996;-79
2024/03/13 19:00:25;;;;;;;;;;;;;;;8.55;100.00;94382.44;10309296;28;19914;-80
2024/03/13 19:05:28;;;;;;;;;;;;;;;8.58;100.00;94387.25;10322478;28;20360;-80
2024/03/13 19:10:30;;;;;;;;;;;;;;;8.43;100.00;94387.22;10291505;28;19921;-80
2024/03/13 19:15:30;;;;;;;;;;;;;;;8.39;100.00;94395.81;10289297;28;19921;-75
2024/03/13 19:20:30;;;;;;;;;;;;;;;8.33;100.00;94394.22;10327118;28;20307;-79
2024/03/13 19:25:31;;;;;;;;;;;;;;;8.51;100.00;94398.25;10347707;28;20000;-83
2024/03/13 19:30:31;;;;;;;;;;;;;;;8.42;100.00;94405.19;10349785;28;20316;-86
2024/03/13 19:35:33;;;;;;;;;;;;;;;8.44;100.00;94412.94;10335340;28;20460;-87
2024/03/13 19:40:33;;;;;;;;;;;;;;;8.27;100.00;94414.00;10311072;28;19922;-78
2024/03/13 19:45:34;;;;;;;;;;;;;;;8.06;100.00;94418.53;10308938;28;19914;-78
2024/03/13 19:50:37;;;;;;;;;;;;;;;8.03;100.00;94416.38;10309750;28;19917;-78
2024/03/13 19:55:37;;;;;;;;;;;;;;;7.94;100.00;94421.47;10306367;28;20457;-79
2024/03/13 20:00:42;;;;;;;;;;;;;;;7.81;100.00;94417.38;10306188;28;19914;-78
2024/03/13 20:05:42;;;;;;;;;;;;;;;7.84;100.00;94413.38;10304901;28;20000;-78
2024/03/13 20:10:42;;;;;;;;;;;;;;;7.84;100.00;94421.41;10305778;28;20070;-78
2024/03/13 20:15:43;;;;;;;;;;;;;;;7.74;100.00;94426.75;10315316;28;19921;-83
2024/03/13 20:20:43;;;;;;;;;;;;;;;7.84;100.00;94422.25;10309132;28;19925;-76
2024/03/13 20:25:43;;;;;;;;;;;;;;;7.85;100.00;94421.16;10305532;28;20071;-80
2024/03/13 20:30:43;;;;;;;;;;;;;;;7.89;100.00;94418.75;10304789;28;20365;-81
2024/03/13 20:35:44;;;;;;;;;;;;;;;7.49;100.00;94413.03;10307328;28;19932;-82
2024/03/13 20:40:44;;;;;;;;;;;;;;;7.41;100.00;94410.03;10304971;28;19925;-79
2024/03/13 20:45:44;;;;;;;;;;;;;;;7.60;100.00;94421.09;10306584;28;19930;-81
2024/03/13 20:50:45;;;;;;;;;;;;;;;7.75;100.00;94415.78;10313125;28;20332;-79
2024/03/13 20:55:45;;;;;;;;;;;;;;;7.39;100.00;94414.84;10310342;28;19914;-77
2024/03/13 21:00:45;;;;;;;;;;;;;;;7.61;100.00;94410.13;10310088;28;19914;-79
2024/03/13 21:05:45;;;;;;;;;;;;;;;7.53;100.00;94399.91;10389359;22;19928;-77
2024/03/13 21:10:46;;;;;;;;;;;;;;;7.66;100.00;94404.78;10386834;28;19947;-77
2024/03/13 21:15:47;;;;;;;;;;;;;;;7.72;100.00;94407.47;10386766;28;20470;-74
2024/03/13 21:20:48;;;;;;;;;;;;;;;7.74;100.00;94402.66;10412240;28;19932;-78
2024/03/13 21:25:48;;;;;;;;;;;;;;;7.90;100.00;94393.63;10392837;28;19916;-78
2024/03/13 21:30:50;;;;;;;;;;;;;;;7.99;100.00;94397.38;10393639;28;19919;-76
2024/03/13 21:35:50;;;;;;;;;;;;;;;7.56;100.00;94398.59;10384770;23;20016;-81
2024/03/13 21:40:51;;;;;;;;;;;;;;;7.65;100.00;94392.47;10287259;28;19947;-79
2024/03/13 21:45:51;;;;;;;;;;;;;;;7.60;100.00;94411.19;10304867;28;19909;-78
2024/03/13 21:50:51;;;;;;;;;;;;;;;7.65;100.00;94397.03;10304686;28;19913;-77
2024/03/13 21:55:51;;;;;;;;;;;;;;;7.26;100.00;94408.13;10304863;28;19913;-79
2024/03/13 22:00:52;;;;;;;;;;;;;;;6.97;100.00;94403.13;10286590;28;19988;-77
2024/03/13 22:05:53;;;;;;;;;;;;;;;7.05;100.00;94409.84;10303964;28;19924;-78
2024/03/13 22:10:53;;;;;;;;;;;;;;;6.84;100.00;94410.53;10305161;28;20450;-79
2024/03/13 22:15:55;;;;;;;;;;;;;;;6.83;100.00;94403.59;10304985;28;19936;-78
2024/03/13 22:20:56;;;;;;;;;;;;;;;6.72;100.00;94406.47;10286751;28;19968;-78
2024/03/13 22:25:56;;;;;;;;;;;;;;;6.78;100.00;94405.41;10305705;28;19914;-76
2024/03/13 22:30:58;;;;;;;;;;;;;;;6.61;100.00;94401.03;10304040;28;20365;-78
2024/03/13 22:35:59;;;;;;;;;;;;;;;6.61;100.00;94405.56;10312703;28;19929;-77
2024/03/13 22:40:59;;;;;;;;;;;;;;;6.39;100.00;94403.00;10286098;28;19925;-78
2024/03/13 22:46:03;;;;;;;;;;;;;;;6.20;100.00;94406.06;10304941;28;19923;-78
2024/03/13 22:51:04;;;;;;;;;;;;;;;6.11;100.00;94415.56;10307538;28;19965;-76
2024/03/13 22:56:06;;;;;;;;;;;;;;;6.05;100.00;94414.72;10285171;28;20004;-77
2024/03/13 23:01:09;;;;;;;;;;;;;;;5.93;100.00;94419.38;10303385;28;19910;-79
2024/03/13 23:06:09;;;;;;;;;;;;;;;5.92;100.00;94407.09;10302798;28;20319;-76
2024/03/13 23:11:09;;;;;;;;;;;;;;;5.93;100.00;94414.84;10285312;28;19918;-77
2024/03/13 23:16:09;;;;;;;;;;;;;;;5.88;100.00;94420.13;10302712;28;19914;-76
2024/03/13 23:21:10;;;;;;;;;;;;;;;5.88;100.00;94425.47;10303255;28;20256;-77
2024/03/13 23:26:10;;;;;;;;;;;;;;;5.90;100.00;94428.69;10302248;28;20291;-76
2024/03/13 23:31:15;;;;;;;;;;;;;;;5.86;100.00;94427.59;10287881;28;20410;-76
2024/03/13 23:36:15;;;;;;;;;;;;;;;5.99;100.00;94423.75;10306666;28;20407;-77
2024/03/13 23:41:16;;;;;;;;;;;;;;;5.98;100.00;94422.91;10337805;28;19932;-78
2024/03/13 23:46:17;;;;;;;;;;;;;;;6.16;100.00;94424.44;10355377;28;20255;-77
2024/03/13 23:51:19;;;;;;;;;;;;;;;6.30;100.00;94418.69;10341056;28;19913;-77
2024/03/13 23:56:19;;;;;;;;;;;;;;;6.27;100.00;94416.53;10350187;28;19963;-78
